Time,TemperatureF,DewpointF,PressureIn,WindDirection,WindDirectionDegrees,WindSpeedMPH,WindSpeedGustMPH,Humidity,HourlyPrecipIn,Conditions,Clouds,dailyrainin,SolarRadiationWatts/m^2,SoftwareType,DateUTC
2013-01-04 00:03:00,47.0,34.6,30.27,East,92,0.0,1.0,62,0.00,,,0.00,0,Wunderground v.1.15,2013-01-04 08:03:00,
2013-01-04 00:09:00,46.7,34.0,30.27,East,92,1.0,3.0,61,0.00,,,0.00,0,Wunderground v.1.15,2013-01-04 08:09:00,
2013-01-04 00:15:00,46.6,33.0,30.27,East,92,1.0,1.0,59,0.00,,,0.00,0,Wunderground v.1.15,2013-01-04 08:15:00,
2013-01-04 00:20:00,46.6,36.2,30.27,East,92,0.0,0.0,67,0.00,,,0.00,0,Wunderground v.1.15,2013-01-04 08:20:00,
2013-01-04 00:25:00,46.3,36.7,30.27,East,92,0.0,0.0,69,0.00,,,0.00,0,Wunderground v.1.15,2013-01-04 08:25:00,
2013-01-04 00:32:00,45.7,37.2,30.27,East,92,0.0,0.0,72,0.00,,,0.00,0,Wunderground v.1.15,2013-01-04 08:32:00,
2013-01-04 00:37:00,45.4,37.2,30.27,East,92,0.0,0.0,73,0.00,,,0.00,0,Wunderground v.1.15,2013-01-04 08:37:00,
2013-01-04 00:42:00,45.1,37.6,30.27,East,92,0.0,0.0,75,0.00,,,0.00,0,Wunderground v.1.15,2013-01-04 08:42:00,
2013-01-04 00:47:00,45.1,37.6,30.27,East,92,0.0,0.0,75,0.00,,,0.00,0,Wunderground v.1.15,2013-01-04 08:47:00,
2013-01-04 00:53:00,45.0,37.9,30.27,East,92,0.0,0.0,76,0.00,,,0.00,0,Wunderground v.1.15,2013-01-04 08:53:00,
2013-01-04 00:59:00,45.0,38.2,30.26,East,92,0.0,0.0,77,0.00,,,0.00,0,Wunderground v.1.15,2013-01-04 08:59:00,
2013-01-04 01:04:00,45.0,38.2,30.26,East,92,0.0,0.0,77,0.00,,,0.00,0,Wunderground v.1.15,2013-01-04 09:04:00,
2013-01-04 01:10:00,45.1,38.0,30.27,East,92,0.0,0.0,76,0.00,,,0.00,0,Wunderground v.1.15,2013-01-04 09:10:00,
2013-01-04 01:15:00,45.1,38.0,30.26,East,92,0.0,0.0,76,0.00,,,0.00,0,Wunderground v.1.15,2013-01-04 09:15:00,
2013-01-04 01:21:00,45.0,37.9,30.26,East,92,0.0,0.0,76,0.00,,,0.00,0,Wunderground v.1.15,2013-01-04 09:21:00,
2013-01-04 01:26:00,44.9,37.1,30.27,East,92,0.0,0.0,74,0.00,,,0.00,0,Wunderground v.1.15,2013-01-04 09:26:00,
2013-01-04 01:32:00,44.9,36.8,30.26,East,92,0.0,0.0,73,0.00,,,0.00,0,Wunderground v.1.15,2013-01-04 09:32:00,
2013-01-04 01:38:00,44.8,35.2,30.26,East,92,0.0,0.0,69,0.00,,,0.00,0,Wunderground v.1.15,2013-01-04 09:38:00,
2013-01-04 01:43:00,44.8,33.4,30.26,East,85,2.0,6.0,64,0.00,,,0.00,0,Wunderground v.1.15,2013-01-04 09:43:00,
2013-01-04 01:48:00,44.7,33.3,30.26,NNE,21,4.0,6.0,64,0.00,,,0.00,0,Wunderground v.1.15,2013-01-04 09:48:00,
2013-01-04 01:53:00,44.5,33.1,30.26,NNE,20,4.0,5.0,64,0.00,,,0.00,0,Wunderground v.1.15,2013-01-04 09:53:00,
2013-01-04 01:58:00,44.2,33.2,30.26,NNE,24,3.0,5.0,65,0.00,,,0.00,0,Wunderground v.1.15,2013-01-04 09:58:00,
2013-01-04 02:04:00,44.0,33.4,30.27,NNE,24,2.0,4.0,66,0.00,,,0.00,0,Wunderground v.1.15,2013-01-04 10:04:00,
2013-01-04 02:10:00,44.0,33.0,30.26,NNE,21,2.0,4.0,65,0.00,,,0.00,0,Wunderground v.1.15,2013-01-04 10:10:00,
2013-01-04 02:16:00,44.2,33.2,30.26,NNE,21,4.0,6.0,65,0.00,,,0.00,0,Wunderground v.1.15,2013-01-04 10:16:00,
2013-01-04 02:21:00,44.3,32.9,30.26,NNE,18,5.0,5.0,64,0.00,,,0.00,0,Wunderground v.1.15,2013-01-04 10:21:00,
2013-01-04 02:26:00,44.3,32.9,30.26,NE,35,5.0,8.0,64,0.00,,,0.00,0,Wunderground v.1.15,2013-01-04 10:26:00,
2013-01-04 02:33:00,44.7,32.9,30.26,NE,34,5.0,5.0,63,0.00,,,0.00,0,Wunderground v.1.15,2013-01-04 10:33:00,
2013-01-04 02:38:00,44.7,32.5,30.26,NE,35,4.0,5.0,62,0.00,,,0.00,0,Wunderground v.1.15,2013-01-04 10:38:00,
2013-01-04 02:43:00,44.9,32.3,30.26,NE,41,4.0,7.0,61,0.00,,,0.00,0,Wunderground v.1.15,2013-01-04 10:43:00,
2013-01-04 02:48:00,45.1,32.0,30.26,NE,39,4.0,7.0,60,0.00,,,0.00,0,Wunderground v.1.15,2013-01-04 10:48:00,
2013-01-04 02:54:00,45.3,31.8,30.27,NNE,19,3.0,4.0,59,0.00,,,0.00,0,Wunderground v.1.15,2013-01-04 10:54:00,
2013-01-04 03:00:00,45.5,32.0,30.27,NNE,20,2.0,5.0,59,0.00,,,0.00,0,Wunderground v.1.15,2013-01-04 11:00:00,
2013-01-04 03:06:00,45.5,32.0,30.27,NNE,16,3.0,6.0,59,0.00,,,0.00,0,Wunderground v.1.15,2013-01-04 11:06:00,
2013-01-04 03:12:00,45.5,31.6,30.27,NE,34,4.0,5.0,58,0.00,,,0.00,0,Wunderground v.1.15,2013-01-04 11:12:00,
2013-01-04 03:17:00,45.5,31.1,30.27,NNE,32,4.0,6.0,57,0.00,,,0.00,0,Wunderground v.1.15,2013-01-04 11:17:00,
2013-01-04 03:22:00,45.5,31.6,30.27,NE,46,5.0,7.0,58,0.00,,,0.00,0,Wunderground v.1.15,2013-01-04 11:22:00,
2013-01-04 03:27:00,45.5,31.6,30.27,NE,38,6.0,7.0,58,0.00,,,0.00,0,Wunderground v.1.15,2013-01-04 11:27:00,
2013-01-04 03:33:00,45.3,31.4,30.27,NE,37,5.0,6.0,58,0.00,,,0.00,0,Wunderground v.1.15,2013-01-04 11:33:00,
2013-01-04 03:39:00,45.3,31.4,30.27,NNE,30,5.0,6.0,58,0.00,,,0.00,0,Wunderground v.1.15,2013-01-04 11:39:00,
2013-01-04 03:45:00,45.3,31.0,30.26,NNE,15,5.0,6.0,57,0.00,,,0.00,0,Wunderground v.1.15,2013-01-04 11:45:00,
2013-01-04 03:52:00,45.2,31.3,30.26,NNE,27,6.0,6.0,58,0.00,,,0.00,0,Wunderground v.1.15,2013-01-04 11:52:00,
2013-01-04 03:57:00,45.1,30.8,30.26,NE,41,5.0,6.0,57,0.00,,,0.00,0,Wunderground v.1.15,2013-01-04 11:57:00,
2013-01-04 04:02:00,45.2,29.5,30.26,NE,46,3.0,4.0,54,0.00,,,0.00,0,Wunderground v.1.15,2013-01-04 12:02:00,
2013-01-04 04:08:00,45.4,29.7,30.26,NE,46,3.0,4.0,54,0.00,,,0.00,0,Wunderground v.1.15,2013-01-04 12:08:00,
2013-01-04 04:14:00,45.5,29.3,30.26,NE,46,2.0,2.0,53,0.00,,,0.00,0,Wunderground v.1.15,2013-01-04 12:14:00,
2013-01-04 04:20:00,45.7,28.6,30.26,NE,45,2.0,4.0,51,0.00,,,0.00,0,Wunderground v.1.15,2013-01-04 12:20:00,
2013-01-04 04:28:00,45.8,28.7,30.26,NE,48,3.0,4.0,51,0.00,,,0.00,0,Wunderground v.1.15,2013-01-04 12:28:00,
2013-01-04 04:33:00,45.9,28.8,30.25,NNE,29,3.0,8.0,51,0.00,,,0.00,0,Wunderground v.1.15,2013-01-04 12:33:00,
2013-01-04 04:38:00,45.9,28.3,30.25,NNE,33,4.0,8.0,50,0.00,,,0.00,0,Wunderground v.1.15,2013-01-04 12:38:00,
2013-01-04 04:44:00,46.1,28.5,30.25,NE,51,4.0,5.0,50,0.00,,,0.00,0,Wunderground v.1.15,2013-01-04 12:44:00,
2013-01-04 04:51:00,46.3,28.2,30.25,NNE,33,4.0,4.0,49,0.00,,,0.00,0,Wunderground v.1.15,2013-01-04 12:51:00,
2013-01-04 04:56:00,46.1,29.0,30.25,NE,34,3.0,4.0,51,0.00,,,0.00,0,Wunderground v.1.15,2013-01-04 12:56:00,
2013-01-04 05:02:00,45.9,32.8,30.25,NE,40,3.0,3.0,60,0.00,,,0.00,0,Wunderground v.1.15,2013-01-04 13:02:00,
2013-01-04 05:07:00,45.6,35.3,30.25,NE,52,2.0,3.0,67,0.00,,,0.00,0,Wunderground v.1.15,2013-01-04 13:07:00,
2013-01-04 05:13:00,45.2,35.3,30.25,NE,52,1.0,1.0,68,0.00,,,0.00,0,Wunderground v.1.15,2013-01-04 13:13:00,
2013-01-04 05:21:00,44.9,36.4,30.25,NE,52,0.0,0.0,72,0.00,,,0.00,0,Wunderground v.1.15,2013-01-04 13:21:00,
2013-01-04 05:28:00,44.6,36.1,30.26,NE,53,0.0,0.0,72,0.00,,,0.00,0,Wunderground v.1.15,2013-01-04 13:28:00,
2013-01-04 05:33:00,44.4,36.3,30.26,NE,52,0.0,0.0,73,0.00,,,0.00,0,Wunderground v.1.15,2013-01-04 13:33:00,
2013-01-04 05:41:00,44.1,36.0,30.26,NE,52,0.0,0.0,73,0.00,,,0.00,0,Wunderground v.1.15,2013-01-04 13:41:00,
2013-01-04 05:46:00,43.9,35.8,30.27,NE,52,0.0,0.0,73,0.00,,,0.00,0,Wunderground v.1.15,2013-01-04 13:46:00,
2013-01-04 05:51:00,43.8,35.7,30.27,NE,53,0.0,0.0,73,0.00,,,0.00,0,Wunderground v.1.15,2013-01-04 13:51:00,
2013-01-04 05:57:00,43.6,35.2,30.27,NE,52,0.0,0.0,72,0.00,,,0.00,0,Wunderground v.1.15,2013-01-04 13:57:00,
2013-01-04 06:02:00,43.5,35.1,30.27,NE,52,0.0,0.0,72,0.00,,,0.00,0,Wunderground v.1.15,2013-01-04 14:02:00,
2013-01-04 06:07:00,43.3,34.5,30.27,NE,52,0.0,0.0,71,0.00,,,0.00,0,Wunderground v.1.15,2013-01-04 14:07:00,
2013-01-04 06:13:00,43.2,35.1,30.27,NE,52,0.0,0.0,73,0.00,,,0.00,0,Wunderground v.1.15,2013-01-04 14:13:00,
2013-01-04 06:18:00,43.1,34.3,30.27,NE,53,0.0,0.0,71,0.00,,,0.00,0,Wunderground v.1.15,2013-01-04 14:18:00,
2013-01-04 06:24:00,43.2,34.1,30.26,NE,52,0.0,4.0,70,0.00,,,0.00,0,Wunderground v.1.15,2013-01-04 14:24:00,
2013-01-04 06:31:00,43.2,31.8,30.27,NE,51,2.0,3.0,64,0.00,,,0.00,0,Wunderground v.1.15,2013-01-04 14:31:00,
2013-01-04 06:36:00,43.3,31.5,30.27,NE,51,3.0,4.0,63,0.00,,,0.00,0,Wunderground v.1.15,2013-01-04 14:36:00,
2013-01-04 06:44:00,44.1,31.5,30.27,NNE,14,4.0,4.0,61,0.00,,,0.00,0,Wunderground v.1.15,2013-01-04 14:44:00,
2013-01-04 06:50:00,44.4,31.0,30.27,NNE,14,3.0,4.0,59,0.00,,,0.00,0,Wunderground v.1.15,2013-01-04 14:50:00,
2013-01-04 06:56:00,44.5,31.5,30.27,NNE,22,2.0,4.0,60,0.00,,,0.00,0,Wunderground v.1.15,2013-01-04 14:56:00,
2013-01-04 07:02:00,44.7,31.7,30.27,NNE,22,2.0,2.0,60,0.00,,,0.00,0,Wunderground v.1.15,2013-01-04 15:02:00,
2013-01-04 07:07:00,44.8,32.6,30.27,NNE,22,2.0,3.0,62,0.00,,,0.00,0,Wunderground v.1.15,2013-01-04 15:07:00,
2013-01-04 07:12:00,44.9,31.8,30.27,NNE,22,2.0,3.0,60,0.00,,,0.00,0,Wunderground v.1.15,2013-01-04 15:12:00,
2013-01-04 07:17:00,45.0,31.9,30.27,NNE,26,2.0,3.0,60,0.00,,,0.00,0,Wunderground v.1.15,2013-01-04 15:17:00,
2013-01-04 07:23:00,45.0,32.8,30.27,NNE,26,1.0,1.0,62,0.00,,,0.00,5,Wunderground v.1.15,2013-01-04 15:23:00,
2013-01-04 07:30:00,44.9,31.8,30.27,NE,44,1.0,2.0,60,0.00,,,0.00,7,Wunderground v.1.15,2013-01-04 15:30:00,
2013-01-04 07:35:00,45.0,31.9,30.27,NE,44,1.0,1.0,60,0.00,,,0.00,9,Wunderground v.1.15,2013-01-04 15:35:00,
2013-01-04 07:41:00,45.0,32.3,30.27,ENE,57,1.0,1.0,61,0.00,,,0.00,12,Wunderground v.1.15,2013-01-04 15:41:00,
2013-01-04 07:47:00,44.9,32.3,30.27,ENE,61,2.0,2.0,61,0.00,,,0.00,12,Wunderground v.1.15,2013-01-04 15:47:00,
2013-01-04 07:52:00,45.0,33.2,30.27,ENE,72,2.0,4.0,63,0.00,,,0.00,14,Wunderground v.1.15,2013-01-04 15:52:00,
2013-01-04 07:58:00,45.0,32.8,30.27,NE,46,3.0,5.0,62,0.00,,,0.00,16,Wunderground v.1.15,2013-01-04 15:58:00,
2013-01-04 08:03:00,45.3,32.6,30.27,ENE,75,4.0,4.0,61,0.00,,,0.00,19,Wunderground v.1.15,2013-01-04 16:03:00,
2013-01-04 08:08:00,45.4,31.9,30.27,ENE,74,4.0,4.0,59,0.00,,,0.00,26,Wunderground v.1.15,2013-01-04 16:08:00,
2013-01-04 08:14:00,46.0,31.6,30.28,ENE,78,3.0,3.0,57,0.00,,,0.00,37,Wunderground v.1.15,2013-01-04 16:14:00,
2013-01-04 08:20:00,46.6,31.7,30.28,East,79,3.0,3.0,56,0.00,,,0.00,49,Wunderground v.1.15,2013-01-04 16:20:00,
2013-01-04 08:26:00,47.0,31.7,30.28,ENE,78,3.0,4.0,55,0.00,,,0.00,63,Wunderground v.1.15,2013-01-04 16:26:00,
2013-01-04 08:33:00,47.3,34.9,30.28,ENE,78,2.0,4.0,62,0.00,,,0.00,79,Wunderground v.1.15,2013-01-04 16:33:00,
2013-01-04 08:38:00,47.2,36.0,30.28,East,79,3.0,4.0,65,0.00,,,0.00,93,Wunderground v.1.15,2013-01-04 16:38:00,
2013-01-04 08:43:00,47.0,33.4,30.28,East,80,2.0,3.0,59,0.00,,,0.00,113,Wunderground v.1.15,2013-01-04 16:43:00,
2013-01-04 08:50:00,47.1,35.5,30.29,East,79,1.0,5.0,64,0.00,,,0.00,130,Wunderground v.1.15,2013-01-04 16:50:00,
2013-01-04 08:55:00,47.2,35.2,30.29,East,80,1.0,2.0,63,0.00,,,0.00,149,Wunderground v.1.15,2013-01-04 16:55:00,
2013-01-04 09:00:00,47.0,35.8,30.29,East,80,1.0,1.0,65,0.00,,,0.00,165,Wunderground v.1.15,2013-01-04 17:00:00,
2013-01-04 09:05:00,46.7,35.6,30.29,East,80,1.0,1.0,65,0.00,,,0.00,181,Wunderground v.1.15,2013-01-04 17:05:00,
2013-01-04 09:10:00,46.5,35.7,30.30,East,80,0.0,0.0,66,0.00,,,0.00,197,Wunderground v.1.15,2013-01-04 17:10:00,
2013-01-04 09:15:00,46.2,35.8,30.29,East,80,0.0,0.0,67,0.00,,,0.00,213,Wunderground v.1.15,2013-01-04 17:15:00,
2013-01-04 09:20:00,46.1,34.6,30.29,NNE,16,0.0,8.0,64,0.00,,,0.00,232,Wunderground v.1.15,2013-01-04 17:20:00,
2013-01-04 09:27:00,46.7,32.7,30.29,NW,325,3.0,8.0,58,0.00,,,0.00,248,Wunderground v.1.15,2013-01-04 17:27:00,
2013-01-04 09:32:00,47.3,32.8,30.30,NNE,28,4.0,5.0,57,0.00,,,0.00,257,Wunderground v.1.15,2013-01-04 17:32:00,
2013-01-04 09:38:00,47.7,35.3,30.30,NNE,28,2.0,5.0,62,0.00,,,0.00,257,Wunderground v.1.15,2013-01-04 17:38:00,
2013-01-04 09:44:00,47.7,35.7,30.30,NNE,28,1.0,2.0,63,0.00,,,0.00,255,Wunderground v.1.15,2013-01-04 17:44:00,
2013-01-04 09:50:00,47.9,38.2,30.30,NNE,29,1.0,1.0,69,0.00,,,0.00,244,Wunderground v.1.15,2013-01-04 17:50:00,
2013-01-04 09:55:00,48.3,38.2,30.30,NNE,29,1.0,1.0,68,0.00,,,0.00,221,Wunderground v.1.15,2013-01-04 17:55:00,
2013-01-04 10:01:00,48.5,36.9,30.30,NNE,24,1.0,7.0,64,0.00,,,0.00,195,Wunderground v.1.15,2013-01-04 18:01:00,
2013-01-04 10:06:00,49.1,32.2,30.30,North,360,4.0,7.0,52,0.00,,,0.00,236,Wunderground v.1.15,2013-01-04 18:06:00,
2013-01-04 10:13:00,49.8,32.4,30.30,NE,38,5.0,7.0,51,0.00,,,0.00,283,Wunderground v.1.15,2013-01-04 18:13:00,
2013-01-04 10:18:00,50.1,32.2,30.30,NNE,31,4.0,7.0,50,0.00,,,0.00,309,Wunderground v.1.15,2013-01-04 18:18:00,
2013-01-04 10:25:00,50.6,31.6,30.29,NE,37,3.0,5.0,48,0.00,,,0.00,360,Wunderground v.1.15,2013-01-04 18:25:00,
2013-01-04 10:31:00,51.0,32.5,30.29,NE,49,3.0,3.0,49,0.00,,,0.00,390,Wunderground v.1.15,2013-01-04 18:31:00,
2013-01-04 10:37:00,51.4,32.3,30.29,NNE,33,2.0,7.0,48,0.00,,,0.00,387,Wunderground v.1.15,2013-01-04 18:37:00,
2013-01-04 10:42:00,51.6,32.5,30.29,ENE,61,3.0,3.0,48,0.00,,,0.00,327,Wunderground v.1.15,2013-01-04 18:42:00,
2013-01-04 10:48:00,51.9,32.3,30.29,ENE,59,3.0,6.0,47,0.00,,,0.00,320,Wunderground v.1.15,2013-01-04 18:48:00,
2013-01-04 10:53:00,51.9,32.8,30.28,ENE,78,5.0,7.0,48,0.00,,,0.00,373,Wunderground v.1.15,2013-01-04 18:53:00,
2013-01-04 11:02:00,52.1,33.0,30.28,NE,55,5.0,5.0,48,0.00,,,0.00,429,Wunderground v.1.15,2013-01-04 19:02:00,
2013-01-04 11:07:00,52.4,33.8,30.28,East,100,5.0,7.0,49,0.00,,,0.00,432,Wunderground v.1.15,2013-01-04 19:07:00,
2013-01-04 11:13:00,52.6,32.9,30.28,NNE,22,5.0,8.0,47,0.00,,,0.00,439,Wunderground v.1.15,2013-01-04 19:13:00,
2013-01-04 11:19:00,52.5,32.8,30.27,East,82,6.0,8.0,47,0.00,,,0.00,445,Wunderground v.1.15,2013-01-04 19:19:00,
2013-01-04 11:24:00,52.8,33.1,30.27,NE,51,6.0,8.0,47,0.00,,,0.00,450,Wunderground v.1.15,2013-01-04 19:24:00,
2013-01-04 11:30:00,53.0,33.8,30.27,NE,38,5.0,8.0,48,0.00,,,0.00,450,Wunderground v.1.15,2013-01-04 19:30:00,
2013-01-04 11:35:00,53.2,39.2,30.27,SSE,155,3.0,5.0,59,0.00,,,0.00,427,Wunderground v.1.15,2013-01-04 19:35:00,
2013-01-04 11:40:00,52.8,39.7,30.27,SSE,165,2.0,6.0,61,0.00,,,0.00,427,Wunderground v.1.15,2013-01-04 19:40:00,
2013-01-04 11:45:00,52.5,39.4,30.27,SSE,167,2.0,2.0,61,0.00,,,0.00,450,Wunderground v.1.15,2013-01-04 19:45:00,
2013-01-04 11:52:00,51.9,38.4,30.26,South,170,2.0,2.0,60,0.00,,,0.00,464,Wunderground v.1.15,2013-01-04 19:52:00,
2013-01-04 11:57:00,51.8,39.2,30.26,South,170,1.0,2.0,62,0.00,,,0.00,466,Wunderground v.1.15,2013-01-04 19:57:00,
2013-01-04 12:02:00,52.1,39.5,30.26,South,170,0.0,0.0,62,0.00,,,0.00,471,Wunderground v.1.15,2013-01-04 20:02:00,
2013-01-04 12:08:00,52.5,39.0,30.25,South,170,0.0,0.0,60,0.00,,,0.00,466,Wunderground v.1.15,2013-01-04 20:08:00,
2013-01-04 12:13:00,52.8,39.3,30.25,South,170,0.0,0.0,60,0.00,,,0.00,464,Wunderground v.1.15,2013-01-04 20:13:00,
2013-01-04 12:22:00,53.2,36.5,30.25,NW,317,2.0,3.0,53,0.00,,,0.00,475,Wunderground v.1.15,2013-01-04 20:22:00,
2013-01-04 12:27:00,53.5,35.8,30.25,NW,306,4.0,7.0,51,0.00,,,0.00,476,Wunderground v.1.15,2013-01-04 20:27:00,
2013-01-04 12:33:00,53.6,35.9,30.24,NNE,24,5.0,10.0,51,0.00,,,0.00,469,Wunderground v.1.15,2013-01-04 20:33:00,
2013-01-04 12:38:00,53.4,35.7,30.24,North,355,7.0,10.0,51,0.00,,,0.00,461,Wunderground v.1.15,2013-01-04 20:38:00,
2013-01-04 12:43:00,53.4,35.2,30.24,NNE,17,7.0,9.0,50,0.00,,,0.00,441,Wunderground v.1.15,2013-01-04 20:43:00,
2013-01-04 12:49:00,53.5,35.3,30.24,North,360,6.0,9.0,50,0.00,,,0.00,418,Wunderground v.1.15,2013-01-04 20:49:00,
2013-01-04 12:54:00,53.7,35.0,30.23,NNE,14,5.0,6.0,49,0.00,,,0.00,399,Wunderground v.1.15,2013-01-04 20:54:00,
2013-01-04 13:00:00,53.9,35.2,30.23,NNW,344,4.0,4.0,49,0.00,,,0.00,374,Wunderground v.1.15,2013-01-04 21:00:00,
2013-01-04 13:05:00,54.2,34.9,30.23,NNE,18,4.0,7.0,48,0.00,,,0.00,359,Wunderground v.1.15,2013-01-04 21:05:00,
2013-01-04 13:10:00,54.3,35.0,30.23,NNE,23,4.0,-999.0,48,0.00,,,0.00,355,Wunderground v.1.15,2013-01-04 21:10:00,
2013-01-04 13:11:00,54.4,35.1,30.23,NNE,24,5.0,5.0,48,0.00,,,0.00,348,Wunderground v.1.15,2013-01-04 21:11:00,
2013-01-04 13:15:00,54.5,35.2,30.23,North,0,4.0,-999.0,48,0.00,,,0.00,346,Wunderground v.1.15,2013-01-04 21:15:00,
2013-01-04 13:16:00,54.5,34.7,30.22,NNE,24,5.0,9.0,47,0.00,,,0.00,343,Wunderground v.1.15,2013-01-04 21:16:00,
2013-01-04 13:20:00,54.4,35.1,30.23,NE,45,6.0,-999.0,48,0.00,,,0.00,342,Wunderground v.1.15,2013-01-04 21:20:00,
2013-01-04 13:21:00,54.4,35.6,30.23,North,5,5.0,5.0,49,0.00,,,0.00,341,Wunderground v.1.15,2013-01-04 21:21:00,
2013-01-04 13:25:00,54.5,35.7,30.23,NW,315,4.0,-999.0,49,0.00,,,0.00,342,Wunderground v.1.15,2013-01-04 21:25:00,
2013-01-04 13:28:00,54.6,35.8,30.22,NNW,345,4.0,7.0,49,0.00,,,0.00,348,Wunderground v.1.15,2013-01-04 21:28:00,
2013-01-04 13:30:00,54.7,35.9,30.22,North,0,5.0,-999.0,49,0.00,,,0.00,347,Wunderground v.1.15,2013-01-04 21:30:00,
2013-01-04 13:35:00,54.8,36.0,30.22,NNE,23,6.0,-999.0,49,0.00,,,0.00,355,Wunderground v.1.15,2013-01-04 21:35:00,
2013-01-04 13:40:00,54.7,35.9,30.21,NNE,23,5.0,-999.0,49,0.00,,,0.00,363,Wunderground v.1.15,2013-01-04 21:40:00,
2013-01-04 13:45:00,54.8,36.5,30.21,NNE,23,4.0,-999.0,50,0.00,,,0.00,373,Wunderground v.1.15,2013-01-04 21:45:00,
2013-01-04 13:50:00,54.9,36.1,30.21,NE,45,4.0,-999.0,49,0.00,,,0.00,382,Wunderground v.1.15,2013-01-04 21:50:00,
2013-01-04 13:55:00,55.1,36.8,30.21,NE,45,2.0,-999.0,50,0.00,,,0.00,387,Wunderground v.1.15,2013-01-04 21:55:00,
2013-01-04 14:00:00,55.3,37.0,30.21,NNE,23,3.0,-999.0,50,0.00,,,0.00,392,Wunderground v.1.15,2013-01-04 22:00:00,
2013-01-04 14:05:00,55.3,37.0,30.22,NNW,338,4.0,-999.0,50,0.00,,,0.00,391,Wunderground v.1.15,2013-01-04 22:05:00,
2013-01-04 14:10:00,55.4,37.1,30.22,NNW,338,4.0,-999.0,50,0.00,,,0.00,388,Wunderground v.1.15,2013-01-04 22:10:00,
2013-01-04 14:15:00,55.4,37.1,30.22,North,0,3.0,-999.0,50,0.00,,,0.00,381,Wunderground v.1.15,2013-01-04 22:15:00,
2013-01-04 14:20:00,55.4,37.1,30.21,NNW,338,4.0,-999.0,50,0.00,,,0.00,373,Wunderground v.1.15,2013-01-04 22:20:00,
2013-01-04 14:25:00,55.4,37.1,30.21,NE,45,3.0,-999.0,50,0.00,,,0.00,363,Wunderground v.1.15,2013-01-04 22:25:00,
2013-01-04 14:30:00,55.3,37.0,30.21,NNE,23,4.0,-999.0,50,0.00,,,0.00,354,Wunderground v.1.15,2013-01-04 22:30:00,
2013-01-04 14:35:00,55.1,37.3,30.21,NNE,23,4.0,-999.0,51,0.00,,,0.00,344,Wunderground v.1.15,2013-01-04 22:35:00,
2013-01-04 14:40:00,55.1,37.3,30.21,NNE,23,2.0,-999.0,51,0.00,,,0.00,329,Wunderground v.1.15,2013-01-04 22:40:00,
2013-01-04 14:45:00,55.2,37.4,30.21,North,0,3.0,-999.0,51,0.00,,,0.00,288,Wunderground v.1.15,2013-01-04 22:45:00,
2013-01-04 14:50:00,55.1,37.3,30.21,NNE,23,5.0,-999.0,51,0.00,,,0.00,231,Wunderground v.1.15,2013-01-04 22:50:00,
2013-01-04 14:55:00,55.0,37.7,30.21,NNE,23,3.0,-999.0,52,0.00,,,0.00,219,Wunderground v.1.15,2013-01-04 22:55:00,
2013-01-04 15:00:00,55.0,37.7,30.21,NE,45,4.0,-999.0,52,0.00,,,0.00,235,Wunderground v.1.15,2013-01-04 23:00:00,
2013-01-04 15:05:00,55.0,37.7,30.21,NNE,23,2.0,-999.0,52,0.00,,,0.00,237,Wunderground v.1.15,2013-01-04 23:05:00,
2013-01-04 15:10:00,55.0,37.7,30.21,NNE,23,5.0,-999.0,52,0.00,,,0.00,220,Wunderground v.1.15,2013-01-04 23:10:00,
2013-01-04 15:15:00,55.0,37.2,30.21,NE,45,3.0,-999.0,51,0.00,,,0.00,204,Wunderground v.1.15,2013-01-04 23:15:00,
2013-01-04 15:20:00,54.9,37.6,30.21,NE,45,5.0,-999.0,52,0.00,,,0.00,190,Wunderground v.1.15,2013-01-04 23:20:00,
2013-01-04 15:25:00,54.9,37.6,30.21,NNE,23,5.0,-999.0,52,0.00,,,0.00,179,Wunderground v.1.15,2013-01-04 23:25:00,
2013-01-04 15:30:00,54.8,37.5,30.20,NNE,23,4.0,-999.0,52,0.00,,,0.00,166,Wunderground v.1.15,2013-01-04 23:30:00,
2013-01-04 15:35:00,54.7,37.4,30.21,NNE,23,3.0,-999.0,52,0.00,,,0.00,157,Wunderground v.1.15,2013-01-04 23:35:00,
2013-01-04 15:40:00,54.7,37.4,30.20,NNE,23,5.0,-999.0,52,0.00,,,0.00,148,Wunderground v.1.15,2013-01-04 23:40:00,
2013-01-04 15:45:00,54.5,37.2,30.21,NE,45,4.0,-999.0,52,0.00,,,0.00,131,Wunderground v.1.15,2013-01-04 23:45:00,
2013-01-04 15:50:00,54.6,36.8,30.20,NNE,23,3.0,-999.0,51,0.00,,,0.00,110,Wunderground v.1.15,2013-01-04 23:50:00,
2013-01-04 15:55:00,54.6,36.8,30.20,NE,45,4.0,-999.0,51,0.00,,,0.00,88,Wunderground v.1.15,2013-01-04 23:55:00,
2013-01-04 16:00:00,54.5,36.2,30.20,ENE,68,4.0,-999.0,50,0.00,,,0.00,79,Wunderground v.1.15,2013-01-05 00:00:00,
2013-01-04 16:05:00,54.4,36.6,30.20,ENE,68,4.0,-999.0,51,0.00,,,0.00,72,Wunderground v.1.15,2013-01-05 00:05:00,
2013-01-04 16:10:00,54.2,36.5,30.20,ENE,68,4.0,-999.0,51,0.00,,,0.00,65,Wunderground v.1.15,2013-01-05 00:10:00,
2013-01-04 16:15:00,54.1,36.9,30.20,ENE,68,1.0,-999.0,52,0.00,,,0.00,62,Wunderground v.1.15,2013-01-05 00:15:00,
2013-01-04 16:20:00,54.1,36.9,30.20,ENE,68,2.0,-999.0,52,0.00,,,0.00,56,Wunderground v.1.15,2013-01-05 00:20:00,
2013-01-04 16:25:00,54.0,36.8,30.20,ENE,68,1.0,-999.0,52,0.00,,,0.00,47,Wunderground v.1.15,2013-01-05 00:25:00,
2013-01-04 16:30:00,53.9,37.1,30.20,ENE,68,3.0,-999.0,53,0.00,,,0.00,37,Wunderground v.1.15,2013-01-05 00:30:00,
2013-01-04 16:35:00,53.8,38.9,30.20,ENE,68,1.0,-999.0,57,0.00,,,0.00,25,Wunderground v.1.15,2013-01-05 00:35:00,
2013-01-04 16:40:00,53.7,39.3,30.20,N/A,-737280,0.0,-999.0,58,0.00,,,0.00,18,Wunderground v.1.15,2013-01-05 00:40:00,
2013-01-04 16:45:00,53.5,39.5,30.20,N/A,-737280,0.0,-999.0,59,0.00,,,0.00,14,Wunderground v.1.15,2013-01-05 00:45:00,
2013-01-04 16:50:00,53.2,39.2,30.21,N/A,-737280,0.0,-999.0,59,0.00,,,0.00,11,Wunderground v.1.15,2013-01-05 00:50:00,
2013-01-04 16:55:00,52.8,39.3,30.21,N/A,-737280,0.0,-999.0,60,0.00,,,0.00,9,Wunderground v.1.15,2013-01-05 00:55:00,
2013-01-04 17:00:00,52.4,39.3,30.20,N/A,-737280,0.0,-999.0,61,0.00,,,0.00,7,Wunderground v.1.15,2013-01-05 01:00:00,
2013-01-04 17:05:00,52.0,39.4,30.21,N/A,-737280,0.0,-999.0,62,0.00,,,0.00,5,Wunderground v.1.15,2013-01-05 01:05:00,
2013-01-04 17:10:00,51.5,38.9,30.20,N/A,-737280,0.0,-999.0,62,0.00,,,0.00,0,Wunderground v.1.15,2013-01-05 01:10:00,
2013-01-04 17:15:00,51.0,38.8,30.20,ENE,68,2.0,-999.0,63,0.00,,,0.00,0,Wunderground v.1.15,2013-01-05 01:15:00,
2013-01-04 17:20:00,50.7,38.6,30.20,ENE,68,2.0,-999.0,63,0.00,,,0.00,0,Wunderground v.1.15,2013-01-05 01:20:00,
2013-01-04 17:25:00,50.7,38.6,30.20,ENE,68,2.0,-999.0,63,0.00,,,0.00,0,Wunderground v.1.15,2013-01-05 01:25:00,
2013-01-04 17:30:00,50.7,38.6,30.20,ENE,68,2.0,-999.0,63,0.00,,,0.00,0,Wunderground v.1.15,2013-01-05 01:30:00,
2013-01-04 17:35:00,50.8,38.7,30.20,ENE,68,2.0,-999.0,63,0.00,,,0.00,0,Wunderground v.1.15,2013-01-05 01:35:00,
2013-01-04 17:40:00,50.9,38.3,30.20,ENE,68,2.0,-999.0,62,0.00,,,0.00,0,Wunderground v.1.15,2013-01-05 01:40:00,
2013-01-04 17:45:00,51.0,38.4,30.21,ENE,68,2.0,-999.0,62,0.00,,,0.00,0,Wunderground v.1.15,2013-01-05 01:45:00,
2013-01-04 17:50:00,51.1,38.5,30.21,ENE,68,3.0,-999.0,62,0.00,,,0.00,0,Wunderground v.1.15,2013-01-05 01:50:00,
2013-01-04 17:55:00,51.1,38.1,30.21,ENE,68,3.0,-999.0,61,0.00,,,0.00,0,Wunderground v.1.15,2013-01-05 01:55:00,
2013-01-04 18:00:00,51.0,38.0,30.20,ENE,68,3.0,-999.0,61,0.00,,,0.00,0,Wunderground v.1.15,2013-01-05 02:00:00,
2013-01-04 18:05:00,51.0,38.4,30.21,ENE,68,3.0,-999.0,62,0.00,,,0.00,0,Wunderground v.1.15,2013-01-05 02:05:00,
2013-01-04 18:10:00,50.9,38.3,30.21,ENE,68,3.0,-999.0,62,0.00,,,0.00,0,Wunderground v.1.15,2013-01-05 02:10:00,
2013-01-04 18:15:00,50.8,38.2,30.22,ENE,68,3.0,-999.0,62,0.00,,,0.00,0,Wunderground v.1.15,2013-01-05 02:15:00,
2013-01-04 18:20:00,50.6,38.5,30.22,ENE,68,3.0,-999.0,63,0.00,,,0.00,0,Wunderground v.1.15,2013-01-05 02:20:00,
2013-01-04 18:25:00,50.6,38.5,30.22,ENE,68,3.0,-999.0,63,0.00,,,0.00,0,Wunderground v.1.15,2013-01-05 02:25:00,
2013-01-04 18:30:00,50.5,38.4,30.22,ENE,68,3.0,-999.0,63,0.00,,,0.00,0,Wunderground v.1.15,2013-01-05 02:30:00,
2013-01-04 18:35:00,50.5,38.4,30.22,ENE,68,4.0,-999.0,63,0.00,,,0.00,0,Wunderground v.1.15,2013-01-05 02:35:00,
2013-01-04 18:40:00,50.4,38.3,30.22,ENE,68,3.0,-999.0,63,0.00,,,0.00,0,Wunderground v.1.15,2013-01-05 02:40:00,
2013-01-04 18:45:00,50.3,38.2,30.22,ENE,68,3.0,-999.0,63,0.00,,,0.00,0,Wunderground v.1.15,2013-01-05 02:45:00,
2013-01-04 18:50:00,50.3,38.2,30.22,ENE,68,3.0,-999.0,63,0.00,,,0.00,0,Wunderground v.1.15,2013-01-05 02:50:00,
2013-01-04 18:55:00,50.3,38.2,30.22,ENE,68,3.0,-999.0,63,0.00,,,0.00,0,Wunderground v.1.15,2013-01-05 02:55:00,
2013-01-04 19:00:00,50.3,38.2,30.22,ENE,68,3.0,-999.0,63,0.00,,,0.00,0,Wunderground v.1.15,2013-01-05 03:00:00,
2013-01-04 19:05:00,50.4,37.9,30.23,ENE,68,3.0,-999.0,62,0.00,,,0.00,0,Wunderground v.1.15,2013-01-05 03:05:00,
2013-01-04 19:10:00,50.5,38.0,30.22,ENE,68,1.0,-999.0,62,0.00,,,0.00,0,Wunderground v.1.15,2013-01-05 03:10:00,
2013-01-04 19:15:00,50.7,38.1,30.22,ENE,68,1.0,-999.0,62,0.00,,,0.00,0,Wunderground v.1.15,2013-01-05 03:15:00,
2013-01-04 19:20:00,50.9,37.9,30.22,ENE,68,2.0,-999.0,61,0.00,,,0.00,0,Wunderground v.1.15,2013-01-05 03:20:00,
2013-01-04 19:25:00,51.1,38.1,30.22,ENE,68,2.0,-999.0,61,0.00,,,0.00,0,Wunderground v.1.15,2013-01-05 03:25:00,
2013-01-04 19:30:00,51.1,38.1,30.22,ENE,68,1.0,-999.0,61,0.00,,,0.00,0,Wunderground v.1.15,2013-01-05 03:30:00,
2013-01-04 19:33:00,51.2,38.2,30.22,ENE,66,1.0,7.0,61,0.00,,,0.00,0,Wunderground v.1.15,2013-01-05 03:33:00,
2013-01-04 19:35:00,51.3,38.3,30.22,ENE,68,1.0,-999.0,61,0.00,,,0.00,0,Wunderground v.1.15,2013-01-05 03:35:00,
2013-01-04 19:40:00,51.4,38.4,30.22,ENE,68,1.0,-999.0,61,0.00,,,0.00,0,Wunderground v.1.15,2013-01-05 03:40:00,
2013-01-04 19:45:00,51.4,38.0,30.22,ENE,66,1.0,7.0,60,0.00,,,0.00,0,Wunderground v.1.15,2013-01-05 03:45:00,
2013-01-04 19:50:00,51.4,38.0,30.22,ENE,66,1.0,7.0,60,0.00,,,0.00,0,Wunderground v.1.15,2013-01-05 03:50:00,
2013-01-04 19:55:00,51.4,38.0,30.22,ENE,67,1.0,7.0,60,0.00,,,0.00,0,Wunderground v.1.15,2013-01-05 03:55:00,
2013-01-04 20:00:00,51.3,37.9,30.22,ENE,68,1.0,-999.0,60,0.00,,,0.00,0,Wunderground v.1.15,2013-01-05 04:00:00,
2013-01-04 20:02:00,51.3,37.9,30.22,ENE,67,1.0,1.0,60,0.00,,,0.00,0,Wunderground v.1.15,2013-01-05 04:02:00,
2013-01-04 20:05:00,51.3,37.9,30.23,N/A,-737280,0.0,-999.0,60,0.00,,,0.00,0,Wunderground v.1.15,2013-01-05 04:05:00,
2013-01-04 20:07:00,51.3,37.9,30.23,ENE,67,0.0,7.0,60,0.00,,,0.00,0,Wunderground v.1.15,2013-01-05 04:07:00,
2013-01-04 20:10:00,51.2,37.8,30.23,N/A,-737280,0.0,-999.0,60,0.00,,,0.00,0,Wunderground v.1.15,2013-01-05 04:10:00,
2013-01-04 20:12:00,51.2,37.8,30.23,ENE,66,0.0,0.0,60,0.00,,,0.00,0,Wunderground v.1.15,2013-01-05 04:12:00,
2013-01-04 20:15:00,51.1,37.7,30.23,N/A,-737280,0.0,-999.0,60,0.00,,,0.00,0,Wunderground v.1.15,2013-01-05 04:15:00,
2013-01-04 20:17:00,51.1,38.1,30.23,ENE,66,0.0,2.0,61,0.00,,,0.00,0,Wunderground v.1.15,2013-01-05 04:17:00,
2013-01-04 20:20:00,51.0,38.4,30.23,ENE,68,1.0,-999.0,62,0.00,,,0.00,0,Wunderground v.1.15,2013-01-05 04:20:00,
2013-01-04 20:25:00,50.8,37.8,30.23,ENE,68,0.0,-999.0,61,0.00,,,0.00,0,Wunderground v.1.15,2013-01-05 04:25:00,
2013-01-04 20:28:00,50.7,37.7,30.23,ENE,67,0.0,0.0,61,0.00,,,0.00,0,Wunderground v.1.15,2013-01-05 04:28:00,
2013-01-04 20:30:00,50.7,37.7,30.23,N/A,-737280,0.0,-999.0,61,0.00,,,0.00,0,Wunderground v.1.15,2013-01-05 04:30:00,
2013-01-04 20:33:00,50.6,37.6,30.23,ENE,67,0.0,0.0,61,0.00,,,0.00,0,Wunderground v.1.15,2013-01-05 04:33:00,
2013-01-04 20:35:00,50.6,37.6,30.23,N/A,-737280,0.0,-999.0,61,0.00,,,0.00,0,Wunderground v.1.15,2013-01-05 04:35:00,
2013-01-04 20:39:00,50.5,37.5,30.23,ENE,67,0.0,1.0,61,0.00,,,0.00,0,Wunderground v.1.15,2013-01-05 04:39:00,
2013-01-04 20:40:00,50.5,37.5,30.23,ENE,68,0.0,-999.0,61,0.00,,,0.00,0,Wunderground v.1.15,2013-01-05 04:40:00,
2013-01-04 20:45:00,50.4,37.4,30.23,ENE,67,0.0,0.0,61,0.00,,,0.00,0,Wunderground v.1.15,2013-01-05 04:45:00,
2013-01-04 20:50:00,50.4,37.4,30.24,ENE,66,0.0,0.0,61,0.00,,,0.00,0,Wunderground v.1.15,2013-01-05 04:50:00,
2013-01-04 20:55:00,50.4,37.4,30.24,ENE,66,0.0,0.0,61,0.00,,,0.00,0,Wunderground v.1.15,2013-01-05 04:55:00,
2013-01-04 21:00:00,50.5,37.5,30.24,ENE,67,0.0,0.0,61,0.00,,,0.00,0,Wunderground v.1.15,2013-01-05 05:00:00,
2013-01-04 21:01:00,50.5,37.5,30.24,ENE,67,0.0,0.0,61,0.00,,,0.00,0,Wunderground v.1.15,2013-01-05 05:01:00,
2013-01-04 21:05:00,50.5,37.1,30.24,ENE,67,0.0,0.0,60,0.00,,,0.00,0,Wunderground v.1.15,2013-01-05 05:05:00,
2013-01-04 21:10:00,50.5,36.7,30.24,ENE,67,0.0,0.0,59,0.00,,,0.00,0,Wunderground v.1.15,2013-01-05 05:10:00,
2013-01-04 21:15:00,50.5,36.7,30.24,ENE,68,0.0,-999.0,59,0.00,,,0.00,0,Wunderground v.1.15,2013-01-05 05:15:00,
2013-01-04 21:17:00,50.5,37.1,30.24,ENE,66,1.0,2.0,60,0.00,,,0.00,0,Wunderground v.1.15,2013-01-05 05:17:00,
2013-01-04 21:20:00,50.6,36.8,30.24,ENE,68,2.0,-999.0,59,0.00,,,0.00,0,Wunderground v.1.15,2013-01-05 05:20:00,
2013-01-04 21:22:00,50.6,36.8,30.24,ENE,67,2.0,3.0,59,0.00,,,0.00,0,Wunderground v.1.15,2013-01-05 05:22:00,
2013-01-04 21:25:00,50.7,36.9,30.24,ENE,68,2.0,-999.0,59,0.00,,,0.00,0,Wunderground v.1.15,2013-01-05 05:25:00,
2013-01-04 21:29:00,50.8,37.0,30.25,ENE,67,2.0,3.0,59,0.00,,,0.00,0,Wunderground v.1.15,2013-01-05 05:29:00,
2013-01-04 21:30:00,50.8,37.0,30.25,ENE,68,3.0,-999.0,59,0.00,,,0.00,0,Wunderground v.1.15,2013-01-05 05:30:00,
2013-01-04 21:35:00,50.9,37.1,30.24,ENE,66,3.0,3.0,59,0.00,,,0.00,0,Wunderground v.1.15,2013-01-05 05:35:00,
2013-01-04 21:42:00,50.8,37.4,30.24,ENE,66,3.0,3.0,60,0.00,,,0.00,0,Wunderground v.1.15,2013-01-05 05:42:00,
2013-01-04 21:48:00,50.6,36.8,30.24,ENE,67,4.0,5.0,59,0.00,,,0.00,0,Wunderground v.1.15,2013-01-05 05:48:00,
2013-01-04 21:54:00,50.4,37.4,30.24,ENE,65,5.0,7.0,61,0.00,,,0.00,0,Wunderground v.1.15,2013-01-05 05:54:00,
2013-01-04 22:01:00,50.4,37.0,30.24,ENE,71,5.0,5.0,60,0.00,,,0.00,0,Wunderground v.1.15,2013-01-05 06:01:00,
2013-01-04 22:07:00,50.4,37.0,30.24,ENE,71,4.0,5.0,60,0.00,,,0.00,0,Wunderground v.1.15,2013-01-05 06:07:00,
2013-01-04 22:12:00,50.3,36.9,30.24,ENE,71,3.0,3.0,60,0.00,,,0.00,0,Wunderground v.1.15,2013-01-05 06:12:00,
2013-01-04 22:18:00,50.3,36.9,30.24,ENE,71,3.0,4.0,60,0.00,,,0.00,0,Wunderground v.1.15,2013-01-05 06:18:00,
2013-01-04 22:24:00,50.2,36.8,30.24,ENE,71,3.0,3.0,60,0.00,,,0.00,0,Wunderground v.1.15,2013-01-05 06:24:00,
2013-01-04 22:29:00,50.0,36.7,30.24,ENE,71,2.0,3.0,60,0.00,,,0.00,0,Wunderground v.1.15,2013-01-05 06:29:00,
2013-01-04 22:34:00,49.9,37.0,30.24,ENE,71,2.0,3.0,61,0.00,,,0.00,0,Wunderground v.1.15,2013-01-05 06:34:00,
2013-01-04 22:40:00,49.8,36.9,30.24,ENE,71,2.0,3.0,61,0.00,,,0.00,0,Wunderground v.1.15,2013-01-05 06:40:00,
2013-01-04 22:46:00,49.9,37.0,30.24,ENE,71,3.0,4.0,61,0.00,,,0.00,0,Wunderground v.1.15,2013-01-05 06:46:00,
2013-01-04 22:51:00,49.8,36.9,30.24,ENE,71,3.0,4.0,61,0.00,,,0.00,0,Wunderground v.1.15,2013-01-05 06:51:00,
2013-01-04 22:57:00,49.8,36.9,30.24,ENE,74,2.0,4.0,61,0.00,,,0.00,0,Wunderground v.1.15,2013-01-05 06:57:00,
2013-01-04 23:02:00,49.9,37.0,30.25,East,95,3.0,5.0,61,0.00,,,0.00,0,Wunderground v.1.15,2013-01-05 07:02:00,
2013-01-04 23:07:00,50.1,37.2,30.25,East,96,4.0,5.0,61,0.00,,,0.00,0,Wunderground v.1.15,2013-01-05 07:07:00,
2013-01-04 23:12:00,50.2,37.3,30.25,East,98,3.0,3.0,61,0.00,,,0.00,0,Wunderground v.1.15,2013-01-05 07:12:00,
2013-01-04 23:18:00,50.2,37.3,30.25,ESE,111,2.0,5.0,61,0.00,,,0.00,0,Wunderground v.1.15,2013-01-05 07:18:00,
2013-01-04 23:24:00,50.0,37.5,30.25,ESE,111,1.0,1.0,62,0.00,,,0.00,0,Wunderground v.1.15,2013-01-05 07:24:00,
2013-01-04 23:29:00,49.7,38.0,30.25,ESE,119,1.0,4.0,64,0.00,,,0.00,0,Wunderground v.1.15,2013-01-05 07:29:00,
2013-01-04 23:35:00,49.4,38.1,30.24,ESE,119,1.0,2.0,65,0.00,,,0.00,0,Wunderground v.1.15,2013-01-05 07:35:00,
2013-01-04 23:40:00,48.9,38.0,30.24,East,100,1.0,3.0,66,0.00,,,0.00,0,Wunderground v.1.15,2013-01-05 07:40:00,
2013-01-04 23:46:00,48.6,38.5,30.24,East,98,3.0,6.0,68,0.00,,,0.00,0,Wunderground v.1.15,2013-01-05 07:46:00,
2013-01-04 23:51:00,48.5,38.8,30.24,East,91,4.0,6.0,69,0.00,,,0.00,0,Wunderground v.1.15,2013-01-05 07:51:00,
2013-01-04 23:56:00,48.5,38.8,30.23,East,96,4.0,6.0,69,0.00,,,0.00,0,Wunderground v.1.15,2013-01-05 07:56:00,